createdAt,value
2022-09-01T00:04:00.830Z,98980.50
2022-09-01T00:09:05.716Z,98979.34
2022-09-01T00:14:16.833Z,98974.75
2022-09-01T00:19:35.935Z,98963.22
2022-09-01T00:24:39.389Z,98964.63
2022-09-01T00:29:44.195Z,98964.34
2022-09-01T00:34:46.521Z,98969.38
2022-09-01T00:39:48.866Z,98954.91
2022-09-01T00:44:51.181Z,98947.69
2022-09-01T00:49:53.827Z,98939.69
2022-09-01T00:55:00.076Z,98941.06
2022-09-01T01:00:06.571Z,98957.63
2022-09-01T01:05:29.919Z,98949.06
2022-09-01T01:10:33.504Z,98938.09
2022-09-01T01:15:36.748Z,98929.13
2022-09-01T01:20:57.986Z,98924.34
2022-09-01T01:26:04.989Z,98923.03
2022-09-01T01:31:12.826Z,98925.25
2022-09-01T01:36:27.801Z,98904.06
2022-09-01T01:41:34.249Z,98907.94
2022-09-01T01:46:43.095Z,98917.44
2022-09-01T01:51:47.408Z,98920.91
2022-09-01T01:56:50.147Z,98925.16
2022-09-01T02:02:00.719Z,98919.03
2022-09-01T02:07:03.081Z,98913.53
2022-09-01T02:12:16.844Z,98910.41
2022-09-01T02:17:19.940Z,98913.22
2022-09-01T02:22:26.156Z,98900.16
2022-09-01T02:27:29.733Z,98914.97
2022-09-01T02:32:32.265Z,98916.78
2022-09-01T02:37:43.577Z,98913.59
2022-09-01T02:42:48.122Z,98905.63
2022-09-01T02:47:51.576Z,98908.31
2022-09-01T02:52:54.697Z,98894.28
2022-09-01T02:57:58.327Z,98894.00
2022-09-01T03:03:01.985Z,98905.59
2022-09-01T03:08:07.487Z,98931.19
2022-09-01T03:13:18.140Z,98955.88
2022-09-01T03:18:20.934Z,98987.03
2022-09-01T03:23:29.505Z,98986.75
2022-09-01T03:28:33.259Z,98974.44
2022-09-01T03:33:39.241Z,98981.47
2022-09-01T03:38:50.706Z,98974.78
2022-09-01T03:43:59.011Z,98971.16
2022-09-01T03:49:07.420Z,98964.16
2022-09-01T03:54:13.864Z,98949.06
2022-09-01T03:59:19.655Z,98942.94
2022-09-01T04:04:24.768Z,98940.94
2022-09-01T04:09:27.236Z,98928.06
2022-09-01T04:14:31.741Z,98923.06
2022-09-01T04:19:37.131Z,98923.03
2022-09-01T04:24:45.061Z,98922.97
2022-09-01T04:29:48.784Z,98913.69
2022-09-01T04:34:51.805Z,98911.75
2022-09-01T04:39:58.519Z,98903.13
2022-09-01T04:45:10.328Z,98904.13
2022-09-01T04:50:23.503Z,98892.91
2022-09-01T04:55:50.169Z,98894.59
2022-09-01T05:00:56.174Z,98903.25
2022-09-01T05:06:03.793Z,98902.09
2022-09-01T05:11:09.857Z,98887.66
2022-09-01T05:16:25.297Z,98892.59
2022-09-01T05:21:31.254Z,98887.22
2022-09-01T05:26:34.983Z,98886.97
2022-09-01T05:31:38.214Z,98883.34
2022-09-01T05:36:44.617Z,98880.84
2022-09-01T05:41:57.336Z,98873.31
2022-09-01T05:47:00.474Z,98868.19
2022-09-01T05:52:10.779Z,98854.16
2022-09-01T05:57:33.351Z,98848.53
2022-09-01T06:02:37.873Z,98850.78
2022-09-01T06:07:45.440Z,98858.97
2022-09-01T06:12:50.587Z,98853.88
2022-09-01T06:18:03.027Z,98850.81
2022-09-01T06:23:07.699Z,98839.72
2022-09-01T06:28:14.771Z,98845.72
2022-09-01T06:33:22.084Z,98842.84
2022-09-01T06:38:30.800Z,98848.16
2022-09-01T06:43:37.707Z,98833.41
2022-09-01T06:48:40.257Z,98834.00
2022-09-01T06:53:53.175Z,98831.03
2022-09-01T06:59:00.005Z,98832.47
2022-09-01T07:04:04.080Z,98829.75
2022-09-01T07:09:47.609Z,98818.03
2022-09-01T07:20:24.458Z,98803.97
2022-09-01T07:25:35.781Z,98805.44
2022-09-01T07:31:48.872Z,98802.78
2022-09-01T07:37:16.156Z,98783.69
2022-09-01T07:47:55.665Z,98800.56
2022-09-01T07:52:58.717Z,98806.25
2022-09-01T08:04:55.446Z,98816.50
2022-09-01T08:10:01.436Z,98823.09
2022-09-01T08:15:13.998Z,98836.97
2022-09-01T08:20:37.723Z,98830.72
2022-09-01T08:26:05.144Z,98832.16
2022-09-01T08:31:31.393Z,98828.00
2022-09-01T08:36:36.619Z,98840.31
2022-09-01T08:41:46.347Z,98845.91
2022-09-01T08:46:57.197Z,98840.69
2022-09-01T08:52:19.756Z,98850.41
2022-09-01T08:57:59.190Z,98837.47
2022-09-01T09:03:10.302Z,98836.03
2022-09-01T09:08:26.652Z,98828.84
2022-09-01T09:13:54.369Z,98803.06
2022-09-01T09:19:06.669Z,98802.19
2022-09-01T09:24:21.533Z,98804.47
2022-09-01T09:29:25.751Z,98796.34
2022-09-01T09:34:28.057Z,98794.91
2022-09-01T09:39:30.542Z,98792.00
2022-09-01T09:44:33.131Z,98804.53
2022-09-01T09:49:42.212Z,98811.72
2022-09-01T09:55:05.151Z,98809.50
2022-09-01T10:00:16.746Z,98798.53
2022-09-01T10:05:24.980Z,98810.78
2022-09-01T10:10:58.271Z,98802.09
2022-09-01T10:16:08.085Z,98796.03
2022-09-01T10:21:25.593Z,98805.72
2022-09-01T10:26:39.525Z,98805.81
2022-09-01T10:31:45.752Z,98794.31
2022-09-01T10:36:54.945Z,98799.44
2022-09-01T10:42:07.298Z,98804.63
2022-09-01T10:47:24.283Z,98774.03
2022-09-01T10:52:43.731Z,98788.34
2022-09-01T10:57:55.832Z,98789.44
2022-09-01T11:03:31.628Z,98784.78
2022-09-01T11:08:34.204Z,98783.56
2022-09-01T11:13:46.413Z,98775.09
2022-09-01T11:18:51.893Z,98782.47
2022-09-01T11:24:16.275Z,98783.84
2022-09-01T11:29:38.840Z,98782.63
2022-09-01T11:34:58.619Z,98779.97
2022-09-01T11:40:08.664Z,98771.00
2022-09-01T11:45:25.006Z,98763.91
2022-09-01T11:50:29.061Z,98754.22
2022-09-01T11:55:35.898Z,98754.81
2022-09-01T12:00:44.709Z,98750.31
2022-09-01T12:05:50.324Z,98748.88
2022-09-01T12:11:02.431Z,98752.69
2022-09-01T12:16:18.053Z,98741.03
2022-09-01T12:21:23.099Z,98741.31
2022-09-01T12:26:31.077Z,98736.16
2022-09-01T12:31:33.726Z,98740.25
2022-09-01T12:36:36.752Z,98728.66
2022-09-01T12:41:47.283Z,98723.28
2022-09-01T12:46:49.600Z,98720.66
2022-09-01T12:52:12.069Z,98724.81
2022-09-01T12:57:37.997Z,98726.09
2022-09-01T13:02:44.065Z,98716.13
2022-09-01T13:07:46.884Z,98716.97
2022-09-01T13:12:49.243Z,98719.13
2022-09-01T13:17:53.288Z,98719.75
2022-09-01T13:22:55.555Z,98722.00
2022-09-01T13:28:04.000Z,98727.16
2022-09-01T13:33:23.627Z,98721.47
2022-09-01T13:38:27.238Z,98720.84
2022-09-01T13:43:32.479Z,98721.78
2022-09-01T13:53:59.251Z,98698.94
2022-09-01T13:59:01.464Z,98694.19
2022-09-01T14:04:06.432Z,98685.16
2022-09-01T14:09:14.479Z,98670.41
2022-09-01T14:14:20.745Z,98674.03
2022-09-01T14:19:26.135Z,98676.09
2022-09-01T14:24:33.875Z,98684.63
2022-09-01T14:34:38.956Z,98699.69
2022-09-01T14:39:46.506Z,98690.28
2022-09-01T14:44:48.863Z,98693.97
2022-09-01T14:49:52.970Z,98706.63
2022-09-01T14:54:55.294Z,98701.41
2022-09-01T14:59:57.729Z,98698.06
2022-09-01T15:05:03.536Z,98697.41
2022-09-01T15:10:07.314Z,98689.22
2022-09-01T15:15:10.071Z,98686.19
2022-09-01T15:20:31.609Z,98701.41
2022-09-01T15:25:34.565Z,98701.09
2022-09-01T15:30:37.203Z,98713.03
2022-09-01T15:35:45.847Z,98714.13
2022-09-01T15:40:57.074Z,98712.56
2022-09-01T15:46:04.174Z,98713.38
2022-09-01T15:51:24.732Z,98714.97
2022-09-01T15:56:27.626Z,98706.28
2022-09-01T16:01:32.370Z,98722.09
2022-09-01T16:06:35.289Z,98718.31
2022-09-01T16:11:39.170Z,98715.13
2022-09-01T16:16:49.325Z,98709.16
2022-09-01T16:22:09.488Z,98728.63
2022-09-01T16:27:33.315Z,98735.03
2022-09-01T16:32:37.569Z,98717.22
2022-09-01T16:37:45.775Z,98725.06
2022-09-01T16:42:49.290Z,98744.47
2022-09-01T16:48:09.626Z,98745.13
2022-09-01T16:53:34.973Z,98756.81
2022-09-01T16:58:37.319Z,98756.78
2022-09-01T17:03:43.787Z,98747.00
2022-09-01T17:09:13.359Z,98736.25
2022-09-01T17:14:22.241Z,98717.97
2022-09-01T17:19:25.364Z,98725.53
2022-09-01T17:24:30.550Z,98744.63
2022-09-01T17:29:35.525Z,98742.25
2022-09-01T17:34:50.018Z,98756.69
2022-09-01T17:40:05.746Z,98767.69
2022-09-01T17:45:23.726Z,98772.03
2022-09-01T17:55:59.939Z,98794.25
2022-09-01T18:01:10.418Z,98803.31
2022-09-01T18:06:22.423Z,98802.78
2022-09-01T18:11:44.249Z,98798.63
2022-09-01T18:16:49.273Z,98805.84
2022-09-01T18:22:00.155Z,98831.22
2022-09-01T18:27:17.318Z,98848.59
2022-09-01T18:32:35.947Z,98850.22
2022-09-01T18:37:41.021Z,98859.81
2022-09-01T18:48:09.180Z,98876.50
2022-09-01T18:53:31.455Z,98879.91
2022-09-01T18:58:54.367Z,98885.78
2022-09-01T19:04:15.445Z,98897.75
2022-09-01T19:09:54.357Z,98897.03
2022-09-01T19:15:18.208Z,98910.19
2022-09-01T19:20:29.624Z,98904.25
2022-09-01T19:25:37.902Z,98906.25
2022-09-01T19:30:42.823Z,98906.25
2022-09-01T19:35:49.162Z,98903.41
2022-09-01T19:40:57.566Z,98900.13
2022-09-01T19:46:14.815Z,98914.00
2022-09-01T19:51:20.810Z,98915.31
2022-09-01T19:56:37.063Z,98913.69
2022-09-01T20:01:42.972Z,98918.06
2022-09-01T20:06:51.074Z,98915.13
2022-09-01T20:11:57.332Z,98912.78
2022-09-01T20:17:07.295Z,98906.13
2022-09-01T20:22:13.787Z,98896.88
2022-09-01T20:27:18.841Z,98898.88
2022-09-01T20:37:49.554Z,98897.19
2022-09-01T20:43:03.375Z,98908.41
2022-09-01T20:48:07.266Z,98912.03
2022-09-01T20:53:18.053Z,98916.53
2022-09-01T20:58:42.011Z,98908.88
2022-09-01T21:03:54.470Z,98920.75
2022-09-01T21:09:10.684Z,98919.75
2022-09-01T21:14:19.334Z,98923.72
2022-09-01T21:19:23.689Z,98932.63
2022-09-01T21:24:26.009Z,98930.78
2022-09-01T21:29:54.612Z,98934.63
2022-09-01T21:34:56.091Z,98940.09
2022-09-01T21:39:58.439Z,98931.28
2022-09-01T21:45:07.122Z,98925.44
2022-09-01T21:50:10.233Z,98927.41
2022-09-01T21:55:17.494Z,98917.44
2022-09-01T22:00:25.200Z,98936.31
2022-09-01T22:05:31.201Z,98929.88
2022-09-01T22:10:35.863Z,98936.00
2022-09-01T22:15:43.143Z,98942.09
2022-09-01T22:20:48.823Z,98941.13
2022-09-01T22:25:51.287Z,98940.44
2022-09-01T22:30:54.678Z,98945.75
2022-09-01T22:35:59.088Z,98943.78
2022-09-01T22:41:02.373Z,98940.91
2022-09-01T22:46:05.998Z,98930.63
2022-09-01T22:51:11.678Z,98931.72
2022-09-01T22:56:20.465Z,98931.22
2022-09-01T23:01:25.137Z,98927.75
2022-09-01T23:06:28.742Z,98928.50
2022-09-01T23:11:31.050Z,98924.91
2022-09-01T23:16:37.906Z,98919.16
2022-09-01T23:21:40.230Z,98910.53
2022-09-01T23:26:42.979Z,98911.88
2022-09-01T23:31:45.387Z,98908.38
2022-09-01T23:36:48.936Z,98911.94
2022-09-01T23:41:51.951Z,98919.63
2022-09-01T23:46:54.217Z,98913.19
2022-09-01T23:51:56.460Z,98917.97
2022-09-01T23:57:02.933Z,98918.47
